sensor_id;sensor_type;location;lat;lon;timestamp;pressure;altitude;pressure_sealevel;temperature;humidity
7109;BME280;29079;41.930;25.558;2023-02-17T00:01:13;100613.25;;;1.23;88.90
7109;BME280;29079;41.930;25.558;2023-02-17T00:03:49;100623.72;;;1.24;88.83
7109;BME280;29079;41.930;25.558;2023-02-17T00:06:24;100625.41;;;1.27;88.90
7109;BME280;29079;41.930;25.558;2023-02-17T00:08:59;100615.31;;;1.13;89.65
7109;BME280;29079;41.930;25.558;2023-02-17T00:11:33;100628.53;;;1.11;89.98
7109;BME280;29079;41.930;25.558;2023-02-17T00:14:08;100619.69;;;1.14;90.46
7109;BME280;29079;41.930;25.558;2023-02-17T00:16:44;100612.44;;;1.20;89.53
7109;BME280;29079;41.930;25.558;2023-02-17T00:19:19;100620.44;;;1.17;89.90
7109;BME280;29079;41.930;25.558;2023-02-17T00:21:58;100617.00;;;1.15;90.60
7109;BME280;29079;41.930;25.558;2023-02-17T00:24:32;100622.94;;;1.22;90.10
7109;BME280;29079;41.930;25.558;2023-02-17T00:27:06;100615.91;;;1.23;89.78
7109;BME280;29079;41.930;25.558;2023-02-17T00:29:39;100619.84;;;1.09;90.34
7109;BME280;29079;41.930;25.558;2023-02-17T00:32:12;100615.75;;;1.00;90.40
7109;BME280;29079;41.930;25.558;2023-02-17T00:34:47;100620.84;;;1.05;89.54
7109;BME280;29079;41.930;25.558;2023-02-17T00:37:20;100614.06;;;0.98;90.44
7109;BME280;29079;41.930;25.558;2023-02-17T00:39:54;100598.91;;;1.06;89.91
7109;BME280;29079;41.930;25.558;2023-02-17T00:42:28;100601.44;;;1.09;89.03
7109;BME280;29079;41.930;25.558;2023-02-17T00:45:01;100600.53;;;0.82;89.65
7109;BME280;29079;41.930;25.558;2023-02-17T00:47:34;100599.44;;;0.89;90.22
7109;BME280;29079;41.930;25.558;2023-02-17T00:50:09;100607.03;;;0.70;90.15
7109;BME280;29079;41.930;25.558;2023-02-17T00:52:42;100594.00;;;0.67;90.29
7109;BME280;29079;41.930;25.558;2023-02-17T00:55:16;100600.75;;;0.76;89.74
7109;BME280;29079;41.930;25.558;2023-02-17T00:57:50;100595.22;;;0.83;89.23
7109;BME280;29079;41.930;25.558;2023-02-17T01:00:23;100591.25;;;0.98;88.29
7109;BME280;29079;41.930;25.558;2023-02-17T01:02:56;100588.09;;;0.87;88.43
7109;BME280;29079;41.930;25.558;2023-02-17T01:05:31;100585.13;;;0.69;88.62
7109;BME280;29079;41.930;25.558;2023-02-17T01:08:04;100583.06;;;0.52;89.30
7109;BME280;29079;41.930;25.558;2023-02-17T01:10:39;100579.66;;;0.49;89.68
7109;BME280;29079;41.930;25.558;2023-02-17T01:13:14;100567.72;;;0.67;88.56
7109;BME280;29079;41.930;25.558;2023-02-17T01:15:50;100558.03;;;0.39;89.81
7109;BME280;29079;41.930;25.558;2023-02-17T01:18:24;100555.72;;;0.30;89.99
7109;BME280;29079;41.930;25.558;2023-02-17T01:20:59;100564.66;;;0.52;90.03
7109;BME280;29079;41.930;25.558;2023-02-17T01:23:33;100546.81;;;0.62;88.88
7109;BME280;29079;41.930;25.558;2023-02-17T01:26:06;100554.28;;;0.76;88.51
7109;BME280;29079;41.930;25.558;2023-02-17T01:28:39;100557.16;;;0.68;88.34
7109;BME280;29079;41.930;25.558;2023-02-17T01:31:13;100552.00;;;0.65;87.92
7109;BME280;29079;41.930;25.558;2023-02-17T01:33:47;100548.16;;;0.47;88.88
7109;BME280;29079;41.930;25.558;2023-02-17T01:36:22;100529.13;;;0.41;88.63
7109;BME280;29079;41.930;25.558;2023-02-17T01:38:56;100535.25;;;0.41;88.03
7109;BME280;29079;41.930;25.558;2023-02-17T01:41:29;100535.19;;;0.43;88.84
7109;BME280;29079;41.930;25.558;2023-02-17T01:44:12;100537.88;;;0.41;89.23
7109;BME280;29079;41.930;25.558;2023-02-17T01:46:49;100530.69;;;0.46;88.19
7109;BME280;29079;41.930;25.558;2023-02-17T01:49:27;100537.72;;;0.46;87.86
7109;BME280;29079;41.930;25.558;2023-02-17T01:52:07;100536.19;;;0.39;87.72
7109;BME280;29079;41.930;25.558;2023-02-17T01:54:44;100482.94;;;0.05;87.81
7109;BME280;29079;41.930;25.558;2023-02-17T01:57:21;100533.00;;;0.57;87.68
7109;BME280;29079;41.930;25.558;2023-02-17T01:59:56;100528.00;;;0.20;88.28
7109;BME280;29079;41.930;25.558;2023-02-17T02:02:30;100531.72;;;0.12;89.71
7109;BME280;29079;41.930;25.558;2023-02-17T02:05:04;100522.50;;;0.27;88.94
7109;BME280;29079;41.930;25.558;2023-02-17T02:07:41;100515.88;;;0.15;88.41
7109;BME280;29079;41.930;25.558;2023-02-17T02:10:17;100513.34;;;0.12;90.04
7109;BME280;29079;41.930;25.558;2023-02-17T02:12:51;100508.25;;;0.08;90.14
7109;BME280;29079;41.930;25.558;2023-02-17T02:15:25;100515.56;;;0.26;88.90
7109;BME280;29079;41.930;25.558;2023-02-17T02:18:11;100507.19;;;0.13;89.15
7109;BME280;29079;41.930;25.558;2023-02-17T02:24:08;100502.19;;;0.04;89.12
7109;BME280;29079;41.930;25.558;2023-02-17T02:27:04;100506.47;;;-0.22;90.44
7109;BME280;29079;41.930;25.558;2023-02-17T02:33:06;100505.72;;;0.05;89.23
7109;BME280;29079;41.930;25.558;2023-02-17T02:35:49;100508.19;;;0.09;89.17
7109;BME280;29079;41.930;25.558;2023-02-17T02:38:29;100506.25;;;-0.14;89.83
7109;BME280;29079;41.930;25.558;2023-02-17T02:41:08;100508.63;;;-0.06;89.54
7109;BME280;29079;41.930;25.558;2023-02-17T02:43:43;100495.69;;;-0.12;89.74
7109;BME280;29079;41.930;25.558;2023-02-17T02:46:16;100493.97;;;-0.13;89.02
7109;BME280;29079;41.930;25.558;2023-02-17T02:48:52;100491.13;;;-0.06;88.48
7109;BME280;29079;41.930;25.558;2023-02-17T02:51:30;100497.75;;;-0.24;89.81
7109;BME280;29079;41.930;25.558;2023-02-17T02:54:27;100501.47;;;-0.31;89.56
7109;BME280;29079;41.930;25.558;2023-02-17T02:57:19;100499.22;;;-0.13;89.60
7109;BME280;29079;41.930;25.558;2023-02-17T03:00:10;100494.75;;;-0.10;88.79
7109;BME280;29079;41.930;25.558;2023-02-17T03:02:49;100499.06;;;-0.07;88.67
7109;BME280;29079;41.930;25.558;2023-02-17T03:05:31;100505.88;;;-0.31;90.39
7109;BME280;29079;41.930;25.558;2023-02-17T03:08:13;100506.16;;;-0.11;89.17
7109;BME280;29079;41.930;25.558;2023-02-17T03:10:51;100514.03;;;-0.11;89.13
7109;BME280;29079;41.930;25.558;2023-02-17T03:13:25;100512.97;;;-0.05;89.17
7109;BME280;29079;41.930;25.558;2023-02-17T03:15:59;100514.75;;;-0.06;88.23
7109;BME280;29079;41.930;25.558;2023-02-17T03:18:33;100503.75;;;-0.19;88.60
7109;BME280;29079;41.930;25.558;2023-02-17T03:21:13;100499.59;;;-0.26;89.50
7109;BME280;29079;41.930;25.558;2023-02-17T03:23:47;100500.91;;;-0.11;88.11
7109;BME280;29079;41.930;25.558;2023-02-17T03:26:21;100486.75;;;-0.05;87.62
7109;BME280;29079;41.930;25.558;2023-02-17T03:28:54;100486.59;;;-0.30;88.28
7109;BME280;29079;41.930;25.558;2023-02-17T03:31:28;100487.75;;;-0.41;90.10
7109;BME280;29079;41.930;25.558;2023-02-17T03:34:02;100481.13;;;-0.23;89.18
7109;BME280;29079;41.930;25.558;2023-02-17T03:36:37;100494.69;;;-0.38;89.44
7109;BME280;29079;41.930;25.558;2023-02-17T03:39:11;100490.50;;;-0.45;89.52
7109;BME280;29079;41.930;25.558;2023-02-17T03:41:44;100478.59;;;-0.26;88.84
7109;BME280;29079;41.930;25.558;2023-02-17T03:44:19;100485.59;;;-0.26;88.50
7109;BME280;29079;41.930;25.558;2023-02-17T03:46:52;100479.72;;;-0.34;88.35
7109;BME280;29079;41.930;25.558;2023-02-17T03:49:25;100479.63;;;-0.31;88.43
7109;BME280;29079;41.930;25.558;2023-02-17T03:52:00;100484.69;;;-0.25;88.50
7109;BME280;29079;41.930;25.558;2023-02-17T03:54:34;100487.78;;;-0.42;88.00
7109;BME280;29079;41.930;25.558;2023-02-17T03:57:08;100483.78;;;-0.56;88.40
7109;BME280;29079;41.930;25.558;2023-02-17T03:59:41;100475.56;;;-0.42;87.37
7109;BME280;29079;41.930;25.558;2023-02-17T04:02:14;100472.13;;;-0.45;87.45
7109;BME280;29079;41.930;25.558;2023-02-17T04:04:47;100475.50;;;-0.40;87.23
7109;BME280;29079;41.930;25.558;2023-02-17T04:07:22;100483.34;;;-0.39;87.63
7109;BME280;29079;41.930;25.558;2023-02-17T04:09:56;100480.84;;;-0.43;87.38
7109;BME280;29079;41.930;25.558;2023-02-17T04:12:31;100453.41;;;-0.63;88.12
7109;BME280;29079;41.930;25.558;2023-02-17T04:15:05;100482.81;;;-0.51;87.60
7109;BME280;29079;41.930;25.558;2023-02-17T04:17:40;100494.75;;;-0.73;88.30
7109;BME280;29079;41.930;25.558;2023-02-17T04:20:13;100505.16;;;-0.69;88.50
7109;BME280;29079;41.930;25.558;2023-02-17T04:22:48;100492.09;;;-0.71;88.55
7109;BME280;29079;41.930;25.558;2023-02-17T04:25:21;100496.41;;;-0.70;88.22
7109;BME280;29079;41.930;25.558;2023-02-17T04:27:55;100495.44;;;-0.66;88.54
7109;BME280;29079;41.930;25.558;2023-02-17T04:30:29;100487.78;;;-0.74;88.36
7109;BME280;29079;41.930;25.558;2023-02-17T04:33:03;100481.75;;;-0.77;88.87
7109;BME280;29079;41.930;25.558;2023-02-17T04:35:37;100492.84;;;-0.67;87.82
7109;BME280;29079;41.930;25.558;2023-02-17T04:38:12;100502.88;;;-0.83;88.74
7109;BME280;29079;41.930;25.558;2023-02-17T04:40:45;100484.66;;;-0.88;88.82
7109;BME280;29079;41.930;25.558;2023-02-17T04:43:19;100493.38;;;-0.88;88.80
7109;BME280;29079;41.930;25.558;2023-02-17T04:45:53;100499.34;;;-0.81;88.29
7109;BME280;29079;41.930;25.558;2023-02-17T04:48:26;100486.91;;;-0.74;88.29
7109;BME280;29079;41.930;25.558;2023-02-17T04:51:00;100485.69;;;-0.61;87.90
7109;BME280;29079;41.930;25.558;2023-02-17T04:53:35;100487.00;;;-0.77;87.69
7109;BME280;29079;41.930;25.558;2023-02-17T04:56:09;100489.88;;;-0.86;87.92
7109;BME280;29079;41.930;25.558;2023-02-17T04:58:42;100492.66;;;-0.93;89.40
7109;BME280;29079;41.930;25.558;2023-02-17T05:01:16;100491.66;;;-0.87;88.72
7109;BME280;29079;41.930;25.558;2023-02-17T05:03:49;100503.91;;;-0.89;88.81
7109;BME280;29079;41.930;25.558;2023-02-17T05:06:22;100505.88;;;-0.97;88.54
7109;BME280;29079;41.930;25.558;2023-02-17T05:08:57;100512.66;;;-0.89;88.00
7109;BME280;29079;41.930;25.558;2023-02-17T05:11:31;100508.22;;;-0.86;87.21
7109;BME280;29079;41.930;25.558;2023-02-17T05:14:05;100508.84;;;-1.11;88.29
7109;BME280;29079;41.930;25.558;2023-02-17T05:16:39;100509.56;;;-1.04;87.69
7109;BME280;29079;41.930;25.558;2023-02-17T05:19:13;100512.34;;;-1.12;88.11
7109;BME280;29079;41.930;25.558;2023-02-17T05:21:46;100509.78;;;-1.14;88.06
7109;BME280;29079;41.930;25.558;2023-02-17T05:24:21;100523.38;;;-0.99;88.11
7109;BME280;29079;41.930;25.558;2023-02-17T05:26:54;100451.22;;;-1.47;87.55
7109;BME280;29079;41.930;25.558;2023-02-17T05:29:28;100505.94;;;-1.00;87.97
7109;BME280;29079;41.930;25.558;2023-02-17T05:32:01;100508.97;;;-0.83;86.96
7109;BME280;29079;41.930;25.558;2023-02-17T05:34:35;100518.50;;;-1.13;87.50
7109;BME280;29079;41.930;25.558;2023-02-17T05:37:08;100513.41;;;-1.19;88.03
7109;BME280;29079;41.930;25.558;2023-02-17T05:39:43;100515.31;;;-0.92;88.13
7109;BME280;29079;41.930;25.558;2023-02-17T05:42:17;100519.53;;;-0.86;87.23
7109;BME280;29079;41.930;25.558;2023-02-17T05:44:50;100524.91;;;-0.91;87.42
7109;BME280;29079;41.930;25.558;2023-02-17T05:47:24;100535.91;;;-0.76;87.38
7109;BME280;29079;41.930;25.558;2023-02-17T05:49:58;100529.66;;;-0.71;87.15
7109;BME280;29079;41.930;25.558;2023-02-17T05:52:32;100530.22;;;-0.59;87.29
7109;BME280;29079;41.930;25.558;2023-02-17T05:55:07;100525.66;;;-0.53;86.66
7109;BME280;29079;41.930;25.558;2023-02-17T05:57:40;100517.34;;;-0.36;86.40
7109;BME280;29079;41.930;25.558;2023-02-17T06:00:15;100521.78;;;-0.38;85.91
7109;BME280;29079;41.930;25.558;2023-02-17T06:02:48;100528.69;;;-0.35;86.46
7109;BME280;29079;41.930;25.558;2023-02-17T06:05:22;100524.94;;;-0.26;86.81
7109;BME280;29079;41.930;25.558;2023-02-17T06:07:56;100531.63;;;-0.14;85.73
7109;BME280;29079;41.930;25.558;2023-02-17T06:10:31;100533.09;;;-0.04;85.36
7109;BME280;29079;41.930;25.558;2023-02-17T06:13:04;100520.13;;;0.20;85.11
7109;BME280;29079;41.930;25.558;2023-02-17T06:15:37;100536.53;;;0.28;84.62
7109;BME280;29079;41.930;25.558;2023-02-17T06:18:10;100536.44;;;0.31;84.42
7109;BME280;29079;41.930;25.558;2023-02-17T06:20:44;100544.16;;;0.36;83.38
7109;BME280;29079;41.930;25.558;2023-02-17T06:23:17;100533.03;;;0.56;83.83
7109;BME280;29079;41.930;25.558;2023-02-17T06:25:52;100531.75;;;0.69;83.85
7109;BME280;29079;41.930;25.558;2023-02-17T06:28:26;100465.03;;;0.46;84.19
7109;BME280;29079;41.930;25.558;2023-02-17T06:31:00;100532.84;;;0.90;84.45
7109;BME280;29079;41.930;25.558;2023-02-17T06:33:33;100537.94;;;0.95;84.65
7109;BME280;29079;41.930;25.558;2023-02-17T06:36:07;100539.25;;;1.08;83.13
7109;BME280;29079;41.930;25.558;2023-02-17T06:38:41;100482.44;;;0.77;84.11
7109;BME280;29079;41.930;25.558;2023-02-17T06:41:16;100534.44;;;1.21;83.00
7109;BME280;29079;41.930;25.558;2023-02-17T06:43:49;100530.56;;;1.31;83.35
7109;BME280;29079;41.930;25.558;2023-02-17T06:46:23;100531.31;;;1.35;83.13
7109;BME280;29079;41.930;25.558;2023-02-17T06:48:56;100523.97;;;1.45;82.89
7109;BME280;29079;41.930;25.558;2023-02-17T06:51:31;100516.63;;;1.54;83.07
7109;BME280;29079;41.930;25.558;2023-02-17T06:54:04;100524.28;;;1.61;82.76
7109;BME280;29079;41.930;25.558;2023-02-17T06:56:39;100510.44;;;1.55;82.69
7109;BME280;29079;41.930;25.558;2023-02-17T06:59:13;100475.06;;;1.39;82.54
7109;BME280;29079;41.930;25.558;2023-02-17T07:01:46;100528.59;;;1.87;81.86
7109;BME280;29079;41.930;25.558;2023-02-17T07:04:20;100537.19;;;1.92;81.83
7109;BME280;29079;41.930;25.558;2023-02-17T07:06:54;100536.84;;;2.01;80.95
7109;BME280;29079;41.930;25.558;2023-02-17T07:09:28;100538.97;;;2.15;80.72
7109;BME280;29079;41.930;25.558;2023-02-17T07:12:04;100531.63;;;2.23;80.73
7109;BME280;29079;41.930;25.558;2023-02-17T07:14:38;100525.31;;;2.28;80.38
7109;BME280;29079;41.930;25.558;2023-02-17T07:17:11;100539.25;;;2.31;81.05
7109;BME280;29079;41.930;25.558;2023-02-17T07:19:45;100541.56;;;2.39;80.64
7109;BME280;29079;41.930;25.558;2023-02-17T07:22:18;100533.25;;;2.50;80.62
7109;BME280;29079;41.930;25.558;2023-02-17T07:24:52;100521.53;;;2.57;80.43
7109;BME280;29079;41.930;25.558;2023-02-17T07:27:27;100535.28;;;2.65;81.05
7109;BME280;29079;41.930;25.558;2023-02-17T07:30:01;100496.00;;;2.59;80.42
7109;BME280;29079;41.930;25.558;2023-02-17T07:32:34;100537.72;;;2.92;80.26
7109;BME280;29079;41.930;25.558;2023-02-17T07:35:08;100522.38;;;3.02;80.42
7109;BME280;29079;41.930;25.558;2023-02-17T07:37:41;100533.41;;;3.11;80.50
7109;BME280;29079;41.930;25.558;2023-02-17T07:40:15;100524.13;;;3.23;80.45
7109;BME280;29079;41.930;25.558;2023-02-17T07:42:50;100522.59;;;3.38;80.94
7109;BME280;29079;41.930;25.558;2023-02-17T07:45:23;100522.78;;;3.54;81.02
7109;BME280;29079;41.930;25.558;2023-02-17T07:47:57;100531.09;;;3.65;81.10
7109;BME280;29079;41.930;25.558;2023-02-17T07:50:30;100530.63;;;3.76;81.20
7109;BME280;29079;41.930;25.558;2023-02-17T07:53:03;100533.78;;;3.84;81.06
7109;BME280;29079;41.930;25.558;2023-02-17T07:55:37;100530.00;;;3.90;81.53
7109;BME280;29079;41.930;25.558;2023-02-17T07:58:12;100510.59;;;3.91;81.41
7109;BME280;29079;41.930;25.558;2023-02-17T08:00:45;100526.69;;;4.25;80.95
7109;BME280;29079;41.930;25.558;2023-02-17T08:03:18;100534.97;;;4.36;80.37
7109;BME280;29079;41.930;25.558;2023-02-17T08:05:52;100534.78;;;4.58;79.90
7109;BME280;29079;41.930;25.558;2023-02-17T08:08:25;100525.41;;;4.70;79.88
7109;BME280;29079;41.930;25.558;2023-02-17T08:11:16;100533.91;;;4.77;78.62
7109;BME280;29079;41.930;25.558;2023-02-17T08:14:09;100538.66;;;4.87;79.08
7109;BME280;29079;41.930;25.558;2023-02-17T08:16:44;100547.19;;;5.12;78.21
7109;BME280;29079;41.930;25.558;2023-02-17T08:19:18;100546.03;;;5.17;77.90
7109;BME280;29079;41.930;25.558;2023-02-17T08:21:52;100541.44;;;5.21;78.15
7109;BME280;29079;41.930;25.558;2023-02-17T08:24:25;100544.72;;;5.26;77.47
7109;BME280;29079;41.930;25.558;2023-02-17T08:26:59;100542.00;;;5.28;77.12
7109;BME280;29079;41.930;25.558;2023-02-17T08:29:34;100551.84;;;5.41;77.07
7109;BME280;29079;41.930;25.558;2023-02-17T08:32:07;100543.38;;;5.52;76.99
7109;BME280;29079;41.930;25.558;2023-02-17T08:34:41;100551.25;;;5.54;76.99
7109;BME280;29079;41.930;25.558;2023-02-17T08:37:14;100534.94;;;5.62;76.36
7109;BME280;29079;41.930;25.558;2023-02-17T08:39:47;100545.44;;;5.81;76.30
7109;BME280;29079;41.930;25.558;2023-02-17T08:42:21;100545.63;;;5.93;75.38
7109;BME280;29079;41.930;25.558;2023-02-17T08:44:56;100549.16;;;5.94;74.77
7109;BME280;29079;41.930;25.558;2023-02-17T08:47:30;100552.19;;;6.04;75.15
7109;BME280;29079;41.930;25.558;2023-02-17T08:50:06;100550.75;;;6.14;74.17
7109;BME280;29079;41.930;25.558;2023-02-17T08:52:40;100545.81;;;6.24;74.69
7109;BME280;29079;41.930;25.558;2023-02-17T08:55:13;100554.81;;;6.37;73.90
7109;BME280;29079;41.930;25.558;2023-02-17T08:57:49;100549.69;;;6.50;74.41
7109;BME280;29079;41.930;25.558;2023-02-17T09:00:24;100548.03;;;6.63;74.69
7109;BME280;29079;41.930;25.558;2023-02-17T09:02:58;100545.56;;;6.76;74.91
7109;BME280;29079;41.930;25.558;2023-02-17T09:05:31;100535.38;;;6.85;75.58
7109;BME280;29079;41.930;25.558;2023-02-17T09:08:06;100534.75;;;6.95;75.78
7109;BME280;29079;41.930;25.558;2023-02-17T09:10:45;100535.06;;;7.05;74.69
7109;BME280;29079;41.930;25.558;2023-02-17T09:13:19;100531.97;;;7.13;74.36
7109;BME280;29079;41.930;25.558;2023-02-17T09:15:54;100532.84;;;7.13;74.68
7109;BME280;29079;41.930;25.558;2023-02-17T09:18:28;100531.63;;;7.19;73.61
7109;BME280;29079;41.930;25.558;2023-02-17T09:21:05;100540.84;;;7.28;72.97
7109;BME280;29079;41.930;25.558;2023-02-17T09:23:39;100531.84;;;7.30;72.78
7109;BME280;29079;41.930;25.558;2023-02-17T09:26:14;100535.03;;;7.52;72.00
7109;BME280;29079;41.930;25.558;2023-02-17T09:28:48;100525.00;;;7.57;71.29
7109;BME280;29079;41.930;25.558;2023-02-17T09:31:28;100521.84;;;7.64;69.68
7109;BME280;29079;41.930;25.558;2023-02-17T09:34:02;100519.09;;;7.66;70.14
7109;BME280;29079;41.930;25.558;2023-02-17T09:36:38;100525.66;;;7.75;70.00
7109;BME280;29079;41.930;25.558;2023-02-17T09:39:11;100522.16;;;7.74;69.32
7109;BME280;29079;41.930;25.558;2023-02-17T09:41:47;100503.16;;;7.80;68.84
7109;BME280;29079;41.930;25.558;2023-02-17T09:44:24;100487.31;;;7.64;68.63
7109;BME280;29079;41.930;25.558;2023-02-17T09:47:04;100507.72;;;8.07;66.53
7109;BME280;29079;41.930;25.558;2023-02-17T09:49:43;100503.47;;;7.90;66.80
7109;BME280;29079;41.930;25.558;2023-02-17T09:52:23;100508.50;;;7.95;66.91
7109;BME280;29079;41.930;25.558;2023-02-17T09:55:03;100482.31;;;7.89;66.53
7109;BME280;29079;41.930;25.558;2023-02-17T09:57:44;100501.34;;;8.10;65.39
7109;BME280;29079;41.930;25.558;2023-02-17T10:00:24;100501.16;;;8.13;63.59
7109;BME280;29079;41.930;25.558;2023-02-17T10:03:03;100495.16;;;8.38;59.81
7109;BME280;29079;41.930;25.558;2023-02-17T10:05:42;100480.56;;;8.58;57.08
7109;BME280;29079;41.930;25.558;2023-02-17T10:08:22;100443.31;;;8.31;57.42
7109;BME280;29079;41.930;25.558;2023-02-17T10:11:01;100491.66;;;8.92;54.51
7109;BME280;29079;41.930;25.558;2023-02-17T10:13:39;100480.94;;;9.06;54.42
7109;BME280;29079;41.930;25.558;2023-02-17T10:16:19;100483.25;;;8.98;54.22
7109;BME280;29079;41.930;25.558;2023-02-17T10:18:59;100486.97;;;9.62;50.63
7109;BME280;29079;41.930;25.558;2023-02-17T10:21:37;100476.94;;;9.78;49.20
7109;BME280;29079;41.930;25.558;2023-02-17T10:24:12;100477.56;;;9.82;48.65
7109;BME280;29079;41.930;25.558;2023-02-17T10:26:55;100472.44;;;9.91;47.81
7109;BME280;29079;41.930;25.558;2023-02-17T10:29:35;100470.56;;;10.05;47.36
7109;BME280;29079;41.930;25.558;2023-02-17T10:32:18;100467.66;;;10.21;46.59
7109;BME280;29079;41.930;25.558;2023-02-17T10:35:11;100468.31;;;10.37;45.87
7109;BME280;29079;41.930;25.558;2023-02-17T10:37:47;100467.22;;;10.88;42.51
7109;BME280;29079;41.930;25.558;2023-02-17T10:40:22;100450.88;;;11.04;41.84
7109;BME280;29079;41.930;25.558;2023-02-17T10:42:59;100451.03;;;11.14;41.96
7109;BME280;29079;41.930;25.558;2023-02-17T10:45:35;100442.44;;;11.22;42.38
7109;BME280;29079;41.930;25.558;2023-02-17T10:48:12;100444.78;;;11.38;41.17
7109;BME280;29079;41.930;25.558;2023-02-17T10:50:48;100441.88;;;11.52;40.29
7109;BME280;29079;41.930;25.558;2023-02-17T10:53:24;100417.06;;;11.61;40.07
7109;BME280;29079;41.930;25.558;2023-02-17T10:56:05;100422.94;;;11.78;39.85
7109;BME280;29079;41.930;25.558;2023-02-17T10:58:47;100430.91;;;12.23;38.29
7109;BME280;29079;41.930;25.558;2023-02-17T11:01:22;100418.53;;;12.11;37.90
7109;BME280;29079;41.930;25.558;2023-02-17T11:04:00;100404.44;;;11.86;40.09
7109;BME280;29079;41.930;25.558;2023-02-17T11:06:41;100402.22;;;12.14;38.80
7109;BME280;29079;41.930;25.558;2023-02-17T11:09:18;100399.81;;;11.99;39.79
7109;BME280;29079;41.930;25.558;2023-02-17T11:11:58;100393.72;;;12.20;39.14
7109;BME280;29079;41.930;25.558;2023-02-17T11:14:34;100391.97;;;12.30;38.56
7109;BME280;29079;41.930;25.558;2023-02-17T11:17:13;100394.94;;;12.05;40.32
7109;BME280;29079;41.930;25.558;2023-02-17T11:19:57;100378.66;;;12.40;37.73
7109;BME280;29079;41.930;25.558;2023-02-17T11:22:34;100383.13;;;12.18;38.79
7109;BME280;29079;41.930;25.558;2023-02-17T11:25:20;100384.91;;;12.62;37.18
7109;BME280;29079;41.930;25.558;2023-02-17T11:27:55;100381.66;;;12.58;36.87
7109;BME280;29079;41.930;25.558;2023-02-17T11:30:31;100376.50;;;12.66;36.02
7109;BME280;29079;41.930;25.558;2023-02-17T11:33:12;100375.84;;;12.74;36.14
7109;BME280;29079;41.930;25.558;2023-02-17T11:35:49;100375.00;;;12.74;36.98
7109;BME280;29079;41.930;25.558;2023-02-17T11:38:25;100358.53;;;12.25;38.16
7109;BME280;29079;41.930;25.558;2023-02-17T11:41:01;100366.97;;;12.41;38.06
7109;BME280;29079;41.930;25.558;2023-02-17T11:43:36;100370.19;;;12.56;37.00
7109;BME280;29079;41.930;25.558;2023-02-17T11:46:19;100345.75;;;12.61;36.87
7109;BME280;29079;41.930;25.558;2023-02-17T11:49:02;100358.47;;;12.68;37.50
7109;BME280;29079;41.930;25.558;2023-02-17T11:51:50;100353.56;;;12.52;37.74
7109;BME280;29079;41.930;25.558;2023-02-17T11:54:42;100357.03;;;12.85;35.69
7109;BME280;29079;41.930;25.558;2023-02-17T11:57:33;100355.25;;;13.17;34.05
7109;BME280;29079;41.930;25.558;2023-02-17T12:00:15;100350.53;;;13.30;33.52
7109;BME280;29079;41.930;25.558;2023-02-17T12:03:04;100355.91;;;13.09;34.10
7109;BME280;29079;41.930;25.558;2023-02-17T12:05:52;100341.72;;;13.39;33.11
7109;BME280;29079;41.930;25.558;2023-02-17T12:08:36;100353.00;;;12.91;34.65
7109;BME280;29079;41.930;25.558;2023-02-17T12:11:17;100318.72;;;13.16;34.11
7109;BME280;29079;41.930;25.558;2023-02-17T12:14:01;100324.19;;;13.35;34.00
7109;BME280;29079;41.930;25.558;2023-02-17T12:16:48;100316.66;;;13.29;34.17
7109;BME280;29079;41.930;25.558;2023-02-17T12:19:41;100318.41;;;13.09;35.49
7109;BME280;29079;41.930;25.558;2023-02-17T12:22:27;100312.56;;;13.04;35.44
7109;BME280;29079;41.930;25.558;2023-02-17T12:25:20;100297.22;;;13.06;35.79
7109;BME280;29079;41.930;25.558;2023-02-17T12:28:07;100292.56;;;12.98;35.65
7109;BME280;29079;41.930;25.558;2023-02-17T12:30:53;100296.47;;;13.25;35.04
7109;BME280;29079;41.930;25.558;2023-02-17T12:33:40;100299.84;;;13.27;35.07
7109;BME280;29079;41.930;25.558;2023-02-17T12:36:18;100286.66;;;13.04;35.36
7109;BME280;29079;41.930;25.558;2023-02-17T12:38:55;100288.88;;;12.99;35.07
7109;BME280;29079;41.930;25.558;2023-02-17T12:41:34;100290.75;;;13.09;34.28
7109;BME280;29079;41.930;25.558;2023-02-17T12:44:12;100286.69;;;13.45;32.13
7109;BME280;29079;41.930;25.558;2023-02-17T12:46:49;100298.06;;;13.68;30.96
7109;BME280;29079;41.930;25.558;2023-02-17T12:49:30;100274.88;;;13.67;30.56
7109;BME280;29079;41.930;25.558;2023-02-17T12:52:09;100283.78;;;13.58;30.57
7109;BME280;29079;41.930;25.558;2023-02-17T12:54:49;100281.38;;;13.65;30.37
7109;BME280;29079;41.930;25.558;2023-02-17T12:57:40;100287.44;;;13.57;30.98
7109;BME280;29079;41.930;25.558;2023-02-17T13:00:20;100284.47;;;13.60;30.36
7109;BME280;29079;41.930;25.558;2023-02-17T13:02:56;100279.50;;;13.15;32.19
7109;BME280;29079;41.930;25.558;2023-02-17T13:05:34;100275.94;;;13.04;32.41
7109;BME280;29079;41.930;25.558;2023-02-17T13:08:14;100279.31;;;13.37;32.05
7109;BME280;29079;41.930;25.558;2023-02-17T13:10:59;100264.34;;;13.04;32.27
7109;BME280;29079;41.930;25.558;2023-02-17T13:13:34;100268.88;;;13.03;31.99
7109;BME280;29079;41.930;25.558;2023-02-17T13:16:11;100276.19;;;13.01;32.21
7109;BME280;29079;41.930;25.558;2023-02-17T13:18:48;100280.13;;;12.76;32.93
7109;BME280;29079;41.930;25.558;2023-02-17T13:21:26;100275.09;;;13.35;31.20
7109;BME280;29079;41.930;25.558;2023-02-17T13:24:06;100273.91;;;13.68;30.81
7109;BME280;29079;41.930;25.558;2023-02-17T13:26:45;100271.28;;;13.37;31.68
7109;BME280;29079;41.930;25.558;2023-02-17T13:29:31;100267.28;;;13.72;30.66
7109;BME280;29079;41.930;25.558;2023-02-17T13:32:10;100277.19;;;13.91;29.15
7109;BME280;29079;41.930;25.558;2023-02-17T13:34:45;100273.38;;;14.04;29.23
7109;BME280;29079;41.930;25.558;2023-02-17T13:37:23;100272.50;;;13.84;29.72
7109;BME280;29079;41.930;25.558;2023-02-17T13:39:59;100271.63;;;13.54;30.20
7109;BME280;29079;41.930;25.558;2023-02-17T13:42:36;100277.63;;;13.36;30.90
7109;BME280;29079;41.930;25.558;2023-02-17T13:45:15;100268.38;;;13.60;30.23
7109;BME280;29079;41.930;25.558;2023-02-17T13:47:52;100266.69;;;13.59;30.47
7109;BME280;29079;41.930;25.558;2023-02-17T13:50:30;100263.84;;;13.61;29.82